ラスベガス の空港の天気 - METARとTAF

マッカラン国際空港 ( KLAS / LAS ) - アメリカ ネバダ州ラスベガス
飛行場実況気象(Metar)
観測時間06/16 00:56 PDT (06/16 07:56 UTC)
風向・風速南南西 3m/s
視程10km以上
天気現象
少しの雲 雲底高度 7620m
気温32.2℃
湿度14%
気圧1003.8hPa
METARKLAS 160756Z 20005KT 10SM FEW250 32/01 A2974 RMK AO2 SLP038 T03220011 403940244
過去の天気等 Google飛行場航空写真 Wunderground天気予報

過去48時間のMETAR

飛行場予報(TAF)
発表時間: 6/15 22:20 PDT (6/16 05:20 UTC)
予報対象時間: 15日23時 PDT ~ 17日5時 PDT
風向・風速南南西 4m/s
視程10km以上
少しの雲 雲底高度 7620m
16日8時 PDT から
風向・風速不定 3m/s
視程10km以上
少しの雲 雲底高度 6100m
16日12時 PDT から
風向・風速南南西 6m/s 瞬間風速 10m/s
視程10km以上
全天の4割程度の雲 雲底高度 3660m
全天の4割程度の雲 雲底高度 4570m
16日21時 PDT から
風向・風速南 4m/s
視程10km以上
少しの雲 雲底高度 4570m
KLAS 160520Z 1606/1712 20007KT P6SM FEW250
FM161500 VRB05KT P6SM FEW200
FM161900 20012G20KT P6SM SCT120 SCT150
FM170400 19008KT P6SM FEW150